Time;durP1;ratioP1;P1;durP2;ratioP2;P2;SDS_P1;SDS_P2;PMS_P1;PMS_P2;Temp;Humidity;BMP_temperature;BMP_pressure;BME280_temperature;BME280_humidity;BME280_pressure;Samples;Min_cycle;Max_cycle;Signal;HPM_P1;HPM_P2
2023/05/13 00:01:13;;;;;;;5.53;4.28;;;12.20;99.90;;;;;;5115146;28;20058;-73
2023/05/13 00:03:39;;;;;;;6.70;4.60;;;12.10;99.90;;;;;;5113648;28;20036;-74
2023/05/13 00:06:05;;;;;;;5.97;5.10;;;12.10;99.90;;;;;;5114883;28;20296;-74
2023/05/13 00:08:31;;;;;;;6.53;4.15;;;12.10;99.90;;;;;;5115349;28;20084;-74
2023/05/13 00:10:56;;;;;;;7.05;4.35;;;12.10;99.90;;;;;;5115064;28;20092;-74
2023/05/13 00:13:22;;;;;;;5.35;4.22;;;12.10;99.90;;;;;;5114488;28;20032;-74
2023/05/13 00:15:48;;;;;;;14.23;4.53;;;12.10;99.90;;;;;;5114867;28;20039;-73
2023/05/13 00:18:13;;;;;;;5.57;4.10;;;12.10;99.90;;;;;;5114842;28;20039;-74
2023/05/13 00:20:39;;;;;;;5.03;4.20;;;12.10;99.90;;;;;;5114710;28;20398;-74
2023/05/13 00:23:06;;;;;;;5.97;4.20;;;12.10;99.90;;;;;;5114796;28;20050;-74
2023/05/13 00:25:32;;;;;;;10.20;4.38;;;12.00;99.90;;;;;;5114779;28;20047;-73
2023/05/13 00:27:58;;;;;;;5.40;4.22;;;12.00;99.90;;;;;;5113779;28;20043;-74
2023/05/13 00:30:23;;;;;;;8.77;4.93;;;12.00;99.90;;;;;;5114728;28;20061;-73
2023/05/13 00:32:49;;;;;;;5.75;3.95;;;12.00;99.90;;;;;;5114254;28;20459;-74
2023/05/13 00:35:15;;;;;;;7.30;4.82;;;12.10;99.90;;;;;;5114629;28;20043;-73
2023/05/13 00:37:40;;;;;;;9.40;4.68;;;12.00;99.90;;;;;;5114616;28;20379;-74
2023/05/13 00:40:15;;;;;;;8.75;4.63;;;12.00;99.90;;;;;;5114508;28;20459;-74
2023/05/13 00:42:41;;;;;;;7.38;4.30;;;12.00;99.90;;;;;;5114541;28;20085;-74
2023/05/13 00:45:07;;;;;;;7.68;4.82;;;11.80;99.90;;;;;;5114430;28;20035;-74
2023/05/13 00:47:33;;;;;;;6.53;4.30;;;11.90;99.90;;;;;;5114622;28;20047;-74
2023/05/13 00:49:58;;;;;;;9.05;4.20;;;11.90;99.90;;;;;;5114493;28;20039;-73
2023/05/13 00:52:24;;;;;;;8.25;4.40;;;11.90;99.90;;;;;;5114290;28;20078;-74
2023/05/13 00:54:50;;;;;;;6.90;4.70;;;12.30;99.90;;;;;;5114361;28;20040;-73
2023/05/13 00:57:16;;;;;;;5.28;4.10;;;11.80;99.90;;;;;;5114463;28;20100;-74
2023/05/13 00:59:41;;;;;;;6.72;5.18;;;11.80;99.90;;;;;;5112997;28;20138;-74
2023/05/13 01:02:21;;;;;;;7.47;4.97;;;12.00;99.90;;;;;;5113094;28;20046;-73
2023/05/13 01:05:17;;;;;;;6.82;4.80;;;11.70;99.90;;;;;;5114161;28;20459;-73
2023/05/13 01:08:19;;;;;;;9.00;5.43;;;11.70;99.90;;;;;;5113996;28;20451;-73
2023/05/13 01:10:58;;;;;;;6.07;4.68;;;11.70;99.90;;;;;;5114913;28;20377;-74
2023/05/13 01:13:27;;;;;;;9.23;5.18;;;11.60;99.90;;;;;;5114140;28;20035;-73
2023/05/13 01:16:05;;;;;;;6.43;4.70;;;11.70;99.90;;;;;;5114158;28;20039;-74
2023/05/13 01:18:43;;;;;;;8.45;4.97;;;11.60;99.90;;;;;;5114099;28;20047;-73
2023/05/13 01:21:10;;;;;;;6.65;4.93;;;11.60;99.90;;;;;;5114097;28;20082;-73
2023/05/13 01:23:36;;;;;;;9.02;4.80;;;12.10;99.90;;;;;;5114092;28;20043;-73
2023/05/13 01:26:02;;;;;;;7.53;4.97;;;11.50;99.90;;;;;;5114327;28;20031;-74
2023/05/13 01:28:28;;;;;;;10.23;5.60;;;11.50;99.90;;;;;;5114109;28;20092;-73
2023/05/13 01:30:55;;;;;;;13.50;5.63;;;11.50;99.90;;;;;;5112812;28;20112;-73
2023/05/13 01:33:22;;;;;;;7.45;5.07;;;11.50;99.90;;;;;;5113836;28;20036;-73
2023/05/13 01:35:48;;;;;;;6.15;4.55;;;11.50;99.90;;;;;;5114038;28;20050;-73
2023/05/13 01:38:14;;;;;;;7.72;5.25;;;11.40;99.90;;;;;;5114075;28;20035;-73
2023/05/13 01:40:41;;;;;;;8.73;5.22;;;11.30;99.90;;;;;;5114167;28;20039;-73
2023/05/13 01:43:07;;;;;;;6.70;4.70;;;11.30;99.90;;;;;;5114029;28;20036;-74
2023/05/13 01:45:35;;;;;;;7.15;5.35;;;11.30;99.90;;;;;;5113813;28;20039;-74
2023/05/13 01:48:01;;;;;;;5.90;4.90;;;11.20;99.90;;;;;;5113854;28;20603;-74
2023/05/13 01:50:26;;;;;;;8.05;5.00;;;11.60;99.90;;;;;;5113787;28;20384;-73
2023/05/13 01:52:52;;;;;;;6.65;5.15;;;11.20;99.90;;;;;;5113739;28;20092;-74
2023/05/13 01:55:18;;;;;;;9.02;5.18;;;11.20;99.90;;;;;;5113811;28;20040;-73
2023/05/13 01:57:43;;;;;;;6.88;4.85;;;11.10;99.90;;;;;;5114079;28;20124;-74
2023/05/13 02:00:10;;;;;;;7.70;4.75;;;11.20;99.90;;;;;;5113793;28;20459;-73
2023/05/13 02:02:35;;;;;;;9.65;4.97;;;11.10;99.90;;;;;;5113357;28;20529;-74
2023/05/13 02:05:01;;;;;;;7.93;4.90;;;11.10;99.90;;;;;;5113560;28;20051;-74
2023/05/13 02:07:26;;;;;;;7.00;4.90;;;11.10;99.90;;;;;;5113718;28;20475;-73
2023/05/13 02:09:58;;;;;;;5.60;5.00;;;11.00;99.90;;;;;;5113665;28;20055;-73
2023/05/13 02:12:25;;;;;;;6.75;5.60;;;11.00;99.90;;;;;;5115496;28;20031;-74
2023/05/13 02:14:50;;;;;;;7.78;4.95;;;11.00;99.90;;;;;;5117361;28;20036;-73
2023/05/13 02:17:16;;;;;;;7.80;5.10;;;11.00;99.90;;;;;;5117180;28;20038;-73
2023/05/13 02:19:41;;;;;;;5.40;4.32;;;11.00;99.90;;;;;;5117075;28;20126;-74
2023/05/13 02:22:07;;;;;;;6.20;4.68;;;11.00;99.90;;;;;;5116950;28;20043;-73
2023/05/13 02:24:34;;;;;;;10.07;5.40;;;11.00;99.90;;;;;;5117088;28;20061;-73
2023/05/13 02:26:59;;;;;;;8.43;5.03;;;11.30;99.90;;;;;;5117111;28;20036;-74
2023/05/13 02:29:25;;;;;;;7.88;4.50;;;11.00;99.90;;;;;;5117020;28;20043;-73
2023/05/13 02:31:50;;;;;;;7.85;4.60;;;10.90;99.90;;;;;;5116888;28;20032;-73
2023/05/13 02:34:16;;;;;;;7.88;4.82;;;11.00;99.90;;;;;;5116823;28;20084;-73
2023/05/13 02:36:42;;;;;;;10.40;5.15;;;11.40;99.90;;;;;;5117244;28;20036;-73
2023/05/13 02:39:07;;;;;;;6.65;4.97;;;11.00;99.90;;;;;;5116899;28;20039;-74
2023/05/13 02:41:34;;;;;;;8.07;5.32;;;11.00;99.90;;;;;;5117007;28;20092;-73
2023/05/13 02:43:59;;;;;;;9.53;5.43;;;10.90;99.90;;;;;;5116706;28;20032;-73
2023/05/13 02:46:25;;;;;;;7.60;5.25;;;11.20;99.90;;;;;;5115465;28;20809;-74
2023/05/13 02:48:51;;;;;;;6.88;4.80;;;10.90;99.90;;;;;;5116977;28;20044;-73
2023/05/13 02:51:16;;;;;;;6.03;5.00;;;10.90;99.90;;;;;;5116518;28;20367;-73
2023/05/13 02:53:42;;;;;;;6.00;5.00;;;10.90;99.90;;;;;;5116250;28;20044;-74
2023/05/13 02:56:07;;;;;;;7.10;5.13;;;10.90;99.90;;;;;;5116492;28;20036;-73
2023/05/13 02:58:33;;;;;;;6.75;4.75;;;10.90;99.90;;;;;;5116245;28;20043;-74
2023/05/13 03:00:59;;;;;;;8.37;5.20;;;10.80;99.90;;;;;;5116359;28;20035;-73
2023/05/13 03:03:25;;;;;;;8.00;5.80;;;10.80;99.90;;;;;;5116875;28;20621;-74
2023/05/13 03:05:50;;;;;;;7.93;5.40;;;10.90;99.90;;;;;;5116406;28;20380;-73
2023/05/13 03:08:16;;;;;;;8.73;5.18;;;10.80;99.90;;;;;;5116219;28;20095;-73
2023/05/13 03:10:41;;;;;;;5.40;4.60;;;10.80;99.90;;;;;;5116563;28;20036;-73
2023/05/13 03:13:07;;;;;;;9.20;5.40;;;10.80;99.90;;;;;;5116146;28;20463;-73
2023/05/13 03:15:32;;;;;;;7.15;5.03;;;10.80;99.90;;;;;;5115870;28;20089;-73
2023/05/13 03:17:58;;;;;;;7.55;5.22;;;10.80;99.90;;;;;;5116052;28;20100;-73
2023/05/13 03:20:24;;;;;;;6.40;5.20;;;10.80;99.90;;;;;;5116171;28;20039;-73
2023/05/13 03:22:49;;;;;;;6.35;4.80;;;10.80;99.90;;;;;;5116314;28;20455;-73
2023/05/13 03:25:15;;;;;;;9.75;5.45;;;10.80;99.90;;;;;;5115966;28;20521;-74
2023/05/13 03:27:41;;;;;;;6.68;5.40;;;10.70;99.90;;;;;;5115588;28;20122;-73
2023/05/13 03:30:07;;;;;;;10.07;5.22;;;10.80;99.90;;;;;;5115638;27;20081;-73
2023/05/13 03:32:33;;;;;;;7.83;5.53;;;10.60;99.90;;;;;;5115623;28;20036;-73
2023/05/13 03:35:03;;;;;;;6.63;5.65;;;10.60;99.90;;;;;;5115660;28;20108;-73
2023/05/13 03:37:28;;;;;;;7.38;5.25;;;10.60;99.90;;;;;;5115439;28;20532;-73
2023/05/13 03:39:54;;;;;;;10.95;5.90;;;10.60;99.90;;;;;;5115576;28;20047;-73
2023/05/13 03:42:20;;;;;;;7.28;5.53;;;10.60;99.90;;;;;;5114362;28;20031;-73
2023/05/13 03:44:45;;;;;;;8.55;5.35;;;10.60;99.90;;;;;;5115519;28;20062;-73
2023/05/13 03:47:11;;;;;;;7.15;5.90;;;10.90;99.90;;;;;;5115173;28;20046;-73
2023/05/13 03:49:36;;;;;;;9.10;6.10;;;10.60;99.90;;;;;;5115365;28;20046;-73
2023/05/13 03:52:02;;;;;;;7.95;5.88;;;10.60;99.90;;;;;;5115756;28;20187;-73
2023/05/13 03:54:28;;;;;;;6.30;5.32;;;10.50;99.90;;;;;;5115605;28;20039;-73
2023/05/13 03:56:53;;;;;;;8.35;6.28;;;10.60;99.90;;;;;;5115331;28;20042;-74
2023/05/13 03:59:19;;;;;;;8.20;6.13;;;10.60;99.90;;;;;;5115250;28;20085;-73
2023/05/13 04:01:44;;;;;;;8.20;5.85;;;10.60;99.90;;;;;;5115179;28;20463;-73
2023/05/13 04:04:10;;;;;;;9.52;6.35;;;10.60;99.90;;;;;;5114700;28;20055;-73
2023/05/13 04:06:36;;;;;;;8.95;6.03;;;10.60;99.90;;;;;;5115518;28;20118;-73
2023/05/13 04:09:03;;;;;;;8.40;6.07;;;10.60;99.90;;;;;;5115129;28;20464;-73
2023/05/13 04:11:30;;;;;;;8.70;6.15;;;10.60;99.90;;;;;;5114981;27;20043;-73
2023/05/13 04:13:56;;;;;;;7.10;5.90;;;10.60;99.90;;;;;;5115017;28;20122;-73
2023/05/13 04:16:21;;;;;;;10.03;6.33;;;11.10;99.90;;;;;;5114888;28;20467;-73
2023/05/13 04:18:47;;;;;;;13.27;6.45;;;10.70;99.90;;;;;;5114624;28;20042;-73
2023/05/13 04:21:12;;;;;;;10.80;6.57;;;10.60;99.90;;;;;;5114897;28;20035;-73
2023/05/13 04:23:38;;;;;;;8.40;6.07;;;10.70;99.90;;;;;;5114552;28;20035;-73
2023/05/13 04:26:04;;;;;;;10.57;6.70;;;10.70;99.90;;;;;;5115294;28;20123;-73
2023/05/13 04:28:30;;;;;;;12.23;6.72;;;10.70;99.90;;;;;;5114617;28;20104;-73
2023/05/13 04:30:56;;;;;;;10.15;7.32;;;10.70;99.90;;;;;;5114540;28;20062;-73
2023/05/13 04:33:21;;;;;;;9.05;6.78;;;10.70;99.90;;;;;;5113597;28;20035;-72
2023/05/13 04:35:47;;;;;;;10.05;5.97;;;10.70;99.90;;;;;;5114408;28;20035;-73
2023/05/13 04:38:13;;;;;;;7.72;6.10;;;10.80;99.90;;;;;;5114722;28;20071;-73
2023/05/13 04:40:38;;;;;;;9.50;5.93;;;10.80;99.90;;;;;;5114893;28;20187;-73
2023/05/13 04:43:04;;;;;;;9.45;6.75;;;10.80;99.90;;;;;;5113087;28;20035;-79
2023/05/13 04:45:30;;;;;;;8.10;6.70;;;10.90;99.90;;;;;;5114496;28;20038;-76
2023/05/13 04:47:56;;;;;;;7.95;6.65;;;10.90;99.90;;;;;;5114180;28;20036;-76
2023/05/13 04:50:22;;;;;;;12.30;6.67;;;11.00;99.90;;;;;;5114802;28;20031;-76
2023/05/13 04:52:47;;;;;;;8.50;6.25;;;10.90;99.90;;;;;;5114300;28;20486;-73
2023/05/13 04:55:13;;;;;;;12.15;7.13;;;11.00;99.90;;;;;;5114364;28;20434;-74
2023/05/13 04:57:39;;;;;;;10.02;6.65;;;11.00;99.90;;;;;;5114116;28;20031;-73
2023/05/13 05:00:07;;;;;;;9.35;6.40;;;11.00;99.90;;;;;;5114312;28;20042;-74
2023/05/13 05:02:32;;;;;;;9.45;7.03;;;11.00;99.90;;;;;;5114197;28;20360;-73
2023/05/13 05:04:58;;;;;;;9.30;6.45;;;11.00;99.90;;;;;;5113361;28;20139;-74
2023/05/13 05:07:24;;;;;;;11.35;7.10;;;11.00;99.90;;;;;;5114221;28;20035;-75
2023/05/13 05:09:50;;;;;;;12.68;7.43;;;11.00;99.90;;;;;;5114410;28;20079;-77
2023/05/13 05:12:15;;;;;;;11.00;7.47;;;11.00;99.90;;;;;;5114132;28;20453;-76
2023/05/13 05:14:41;;;;;;;8.82;7.22;;;11.20;99.90;;;;;;5114165;28;20043;-76
2023/05/13 05:17:07;;;;;;;10.27;7.05;;;11.10;99.90;;;;;;5114030;28;20038;-80
2023/05/13 05:19:32;;;;;;;12.32;7.80;;;11.20;99.90;;;;;;5114544;28;20124;-75
2023/05/13 05:21:58;;;;;;;12.80;7.13;;;11.30;99.90;;;;;;5113985;28;20032;-75
2023/05/13 05:24:23;;;;;;;11.90;7.40;;;11.20;99.90;;;;;;5114047;28;20097;-76
2023/05/13 05:26:49;;;;;;;11.13;7.72;;;11.30;99.90;;;;;;5114256;28;20464;-76
2023/05/13 05:29:15;;;;;;;10.52;7.88;;;11.40;99.90;;;;;;5113999;28;20130;-76
2023/05/13 05:31:40;;;;;;;14.02;8.27;;;11.40;99.90;;;;;;5113604;28;20464;-77
2023/05/13 05:34:06;;;;;;;9.82;8.10;;;11.50;99.90;;;;;;5113901;28;20040;-76
2023/05/13 05:36:32;;;;;;;10.05;8.32;;;11.60;99.90;;;;;;5113298;28;20050;-76
2023/05/13 05:38:57;;;;;;;13.43;7.85;;;11.90;99.90;;;;;;5113944;28;20123;-76
2023/05/13 05:41:23;;;;;;;10.93;8.10;;;11.80;99.90;;;;;;5113913;28;20475;-76
2023/05/13 05:43:49;;;;;;;11.23;8.48;;;11.90;99.90;;;;;;5112935;28;20107;-76
2023/05/13 05:46:15;;;;;;;10.95;9.02;;;12.40;99.90;;;;;;5113920;28;20087;-76
2023/05/13 05:48:41;;;;;;;13.55;8.57;;;12.20;99.90;;;;;;5117852;28;20045;-76
2023/05/13 05:51:06;;;;;;;10.43;8.20;;;12.40;99.90;;;;;;5117769;28;20501;-77
2023/05/13 05:53:34;;;;;;;13.82;8.73;;;12.50;99.90;;;;;;5117662;28;20042;-77
2023/05/13 05:56:00;;;;;;;12.32;8.20;;;12.60;99.90;;;;;;5117271;28;20051;-76
2023/05/13 05:58:25;;;;;;;10.85;8.02;;;12.70;99.90;;;;;;5117776;28;20040;-75
2023/05/13 06:00:53;;;;;;;14.30;8.20;;;12.90;99.90;;;;;;5117459;28;20044;-77
2023/05/13 06:03:19;;;;;;;10.88;8.52;;;13.10;99.90;;;;;;5117455;28;20047;-79
2023/05/13 06:05:45;;;;;;;10.38;7.78;;;13.20;99.90;;;;;;5117343;28;20058;-78
2023/05/13 06:08:10;;;;;;;12.98;8.05;;;13.30;99.90;;;;;;5117515;28;20363;-77
2023/05/13 06:10:37;;;;;;;9.23;7.10;;;13.40;99.90;;;;;;5117423;28;20044;-78
2023/05/13 06:13:03;;;;;;;11.80;7.75;;;13.50;99.90;;;;;;5117416;28;20383;-77
2023/05/13 06:15:28;;;;;;;10.00;7.57;;;13.60;99.90;;;;;;5117383;28;20039;-76
2023/05/13 06:17:54;;;;;;;13.50;7.72;;;13.60;99.90;;;;;;5117722;28;20051;-76
2023/05/13 06:20:19;;;;;;;12.93;7.45;;;13.60;99.90;;;;;;5117158;28;20497;-76
2023/05/13 06:22:45;;;;;;;10.73;7.43;;;13.70;99.90;;;;;;5117181;28;20043;-74
2023/05/13 06:25:11;;;;;;;8.48;6.97;;;14.30;99.90;;;;;;5117253;28;20036;-75
2023/05/13 06:27:36;;;;;;;9.55;6.90;;;14.00;99.90;;;;;;5117201;28;20039;-75
2023/05/13 06:30:02;;;;;;;8.70;6.95;;;14.20;99.90;;;;;;5117031;28;20082;-77
2023/05/13 06:32:28;;;;;;;9.10;7.07;;;14.20;99.90;;;;;;5116593;28;20042;-78
2023/05/13 06:34:53;;;;;;;9.65;6.93;;;14.40;99.90;;;;;;5117216;28;20360;-76
2023/05/13 06:37:19;;;;;;;10.10;6.60;;;14.40;99.90;;;;;;5117359;28;20118;-81
2023/05/13 06:39:45;;;;;;;10.50;7.10;;;14.60;99.90;;;;;;5116551;28;20107;-78
2023/05/13 06:42:10;;;;;;;12.55;6.88;;;14.60;99.90;;;;;;5116973;28;20036;-77
2023/05/13 06:44:36;;;;;;;8.93;6.53;;;15.00;99.90;;;;;;5116786;28;20375;-76
2023/05/13 06:47:03;;;;;;;10.37;6.57;;;14.60;99.90;;;;;;5116381;28;20123;-76
2023/05/13 06:49:29;;;;;;;8.80;6.63;;;14.80;99.90;;;;;;5116606;28;20076;-79
2023/05/13 06:51:55;;;;;;;7.97;5.97;;;14.90;99.90;;;;;;5116667;28;20043;-77
2023/05/13 06:54:20;;;;;;;11.07;7.07;;;15.10;99.90;;;;;;5116610;28;20352;-76
2023/05/13 06:56:46;;;;;;;9.20;6.20;;;15.10;99.90;;;;;;5116500;28;20051;-84
2023/05/13 06:59:12;;;;;;;8.40;6.10;;;15.20;99.90;;;;;;5098174;28;20044;-74
2023/05/13 07:01:38;;;;;;;10.60;6.50;;;15.40;99.90;;;;;;5116504;28;20046;-76
2023/05/13 07:04:04;;;;;;;9.27;6.37;;;15.40;99.90;;;;;;5116112;28;20126;-75
2023/05/13 07:06:29;;;;;;;8.13;6.13;;;15.40;99.90;;;;;;5116315;28;20062;-74
2023/05/13 07:08:55;;;;;;;7.90;5.80;;;15.50;99.90;;;;;;5116334;28;20046;-74
2023/05/13 07:11:21;;;;;;;9.50;5.90;;;15.60;99.90;;;;;;5116158;28;20039;-86
2023/05/13 07:13:47;;;;;;;10.23;6.30;;;15.70;99.90;;;;;;5096896;28;20061;-75
2023/05/13 07:16:13;;;;;;;7.75;5.93;;;15.70;99.90;;;;;;5115810;28;20042;-77
2023/05/13 07:18:39;;;;;;;12.40;6.10;;;15.80;99.90;;;;;;5116056;28;20040;-75
2023/05/13 07:21:05;;;;;;;8.63;5.67;;;15.90;99.90;;;;;;5116561;28;20039;-72
2023/05/13 07:23:31;;;;;;;8.68;6.32;;;16.10;99.90;;;;;;5116451;28;20424;-73
2023/05/13 07:26:00;;;;;;;7.50;5.87;;;16.20;99.90;;;;;;5115836;28;20127;-71
2023/05/13 07:28:26;;;;;;;9.40;6.32;;;16.20;99.90;;;;;;5114973;28;20032;-72
2023/05/13 07:30:52;;;;;;;8.87;6.03;;;16.30;99.90;;;;;;5113441;28;20086;-70
2023/05/13 07:33:18;;;;;;;8.57;5.47;;;16.50;99.90;;;;;;5113536;28;20069;-71
2023/05/13 07:35:44;;;;;;;9.67;5.47;;;16.70;99.90;;;;;;5115776;28;20036;-70
2023/05/13 07:38:12;;;;;;;7.07;5.47;;;16.80;99.90;;;;;;5115705;28;20387;-70
2023/05/13 07:40:38;;;;;;;8.18;5.90;;;17.00;99.90;;;;;;5115711;28;20055;-71
2023/05/13 07:43:04;;;;;;;12.37;6.43;;;17.00;99.90;;;;;;5115665;28;20455;-71
2023/05/13 07:45:30;;;;;;;7.68;5.78;;;17.10;99.90;;;;;;5115409;28;20395;-71
2023/05/13 07:47:56;;;;;;;7.87;5.67;;;17.10;99.90;;;;;;5115453;28;20044;-71
2023/05/13 07:50:21;;;;;;;10.63;5.23;;;17.20;99.90;;;;;;5115393;28;20100;-70
2023/05/13 07:52:48;;;;;;;8.27;5.20;;;17.30;99.90;;;;;;5115289;28;20032;-71
2023/05/13 07:55:14;;;;;;;6.35;4.88;;;17.50;99.90;;;;;;5115313;28;20039;-72
2023/05/13 07:57:40;;;;;;;7.55;5.18;;;17.70;99.90;;;;;;5115269;28;20036;-72
2023/05/13 08:00:06;;;;;;;8.27;5.13;;;17.70;99.90;;;;;;5115147;28;20057;-72
2023/05/13 08:02:33;;;;;;;7.13;5.50;;;17.70;99.90;;;;;;5115257;28;20035;-72
2023/05/13 08:04:59;;;;;;;9.02;6.43;;;17.70;99.90;;;;;;5115463;28;20047;-72
2023/05/13 08:07:25;;;;;;;8.77;5.90;;;17.80;99.90;;;;;;5115075;28;20043;-71
2023/05/13 08:09:51;;;;;;;7.73;5.33;;;17.90;99.90;;;;;;5114532;28;20767;-71
2023/05/13 08:12:16;;;;;;;7.43;5.40;;;18.00;99.90;;;;;;5114974;28;20071;-71
2023/05/13 08:14:42;;;;;;;15.00;5.40;;;18.10;99.90;;;;;;5114917;28;20467;-71
2023/05/13 08:17:07;;;;;;;8.53;5.20;;;18.10;99.90;;;;;;5114892;28;20130;-71
2023/05/13 08:19:34;;;;;;;7.57;5.07;;;18.20;99.90;;;;;;5114849;28;20122;-71
2023/05/13 08:22:00;;;;;;;8.98;5.50;;;18.30;99.90;;;;;;5114762;28;20032;-72
2023/05/13 08:24:25;;;;;;;9.50;5.50;;;18.40;99.90;;;;;;5115357;28;20188;-71
2023/05/13 08:26:51;;;;;;;7.53;5.07;;;18.50;99.90;;;;;;5114755;28;20139;-71
2023/05/13 08:29:17;;;;;;;9.37;5.57;;;18.50;99.90;;;;;;5113168;28;20124;-72
2023/05/13 08:31:42;;;;;;;8.63;5.53;;;18.60;99.90;;;;;;5114433;28;20081;-71
2023/05/13 08:34:08;;;;;;;7.07;5.73;;;18.60;99.90;;;;;;5114613;28;20040;-73
2023/05/13 08:36:33;;;;;;;9.37;5.53;;;18.60;99.90;;;;;;5114588;28;20074;-71
2023/05/13 08:39:00;;;;;;;6.67;5.20;;;18.60;99.90;;;;;;5114528;28;20032;-71
2023/05/13 08:41:27;;;;;;;9.65;5.50;;;18.60;99.90;;;;;;5114568;28;20047;-70
2023/05/13 08:43:53;;;;;;;;;;;18.70;99.90;;;;;;5114931;28;20155;-71
2023/05/13 08:46:21;;;;;;;7.28;5.35;;;18.90;99.90;;;;;;5114505;28;19940;-72
2023/05/13 08:48:47;;;;;;;9.05;4.72;;;18.90;99.90;;;;;;5114784;28;20038;-72
2023/05/13 08:51:13;;;;;;;7.33;4.57;;;19.00;99.90;;;;;;5114403;28;20379;-72
2023/05/13 08:53:39;;;;;;;6.63;5.07;;;19.20;99.90;;;;;;5112971;28;20569;-71
2023/05/13 08:56:07;;;;;;;;;;;19.40;99.90;;;;;;5114505;28;20036;-71
2023/05/13 08:58:32;;;;;;;5.90;4.30;;;19.50;99.90;;;;;;5114309;28;20271;-73
2023/05/13 09:00:58;;;;;;;6.23;4.40;;;19.70;99.90;;;;;;5114271;28;20044;-72
2023/05/13 09:03:27;;;;;;;6.50;4.03;;;19.80;99.90;;;;;;5114217;28;20036;-71
2023/05/13 09:05:53;;;;;;;7.70;4.57;;;19.90;99.90;;;;;;5114658;28;20382;-72
2023/05/13 09:08:18;;;;;;;6.77;5.10;;;19.90;99.90;;;;;;5114310;28;20044;-72
2023/05/13 09:10:45;;;;;;;6.27;3.73;;;19.90;99.90;;;;;;5114216;28;20085;-71
2023/05/13 09:13:11;;;;;;;5.97;4.07;;;20.00;99.90;;;;;;5112823;28;20117;-71
2023/05/13 09:15:41;;;;;;;6.05;3.92;;;20.10;99.90;;;;;;5114572;28;20082;-73
2023/05/13 09:18:07;;;;;;;6.70;4.40;;;20.20;99.90;;;;;;5114133;28;20078;-72
2023/05/13 09:20:34;;;;;;;5.73;4.30;;;20.20;99.90;;;;;;5115030;28;20066;-72
2023/05/13 09:23:09;;;;;;;8.27;4.63;;;20.30;99.90;;;;;;5118585;27;20345;-72
2023/05/13 09:25:36;;;;;;;7.22;4.85;;;20.40;99.90;;;;;;5118288;28;20118;-73
2023/05/13 09:28:04;;;;;;;7.80;4.15;;;20.50;99.90;;;;;;5118119;28;20035;-71
2023/05/13 09:30:35;;;;;;;8.35;4.13;;;20.50;99.90;;;;;;5118186;27;20043;-72
2023/05/13 09:33:05;;;;;;;5.32;3.47;;;20.60;99.90;;;;;;5118368;28;20040;-72
2023/05/13 09:35:32;;;;;;;4.65;3.45;;;20.70;99.90;;;;;;5118030;28;20039;-73
2023/05/13 09:37:57;;;;;;;5.63;3.72;;;20.70;99.90;;;;;;5118112;28;20042;-71
2023/05/13 09:40:23;;;;;;;7.73;3.53;;;20.70;99.90;;;;;;5118026;28;20119;-72
2023/05/13 09:42:49;;;;;;;3.47;3.03;;;20.90;99.90;;;;;;5118496;28;20470;-72
2023/05/13 09:45:16;;;;;;;4.97;3.50;;;21.00;99.90;;;;;;5116990;28;20039;-71
2023/05/13 09:47:41;;;;;;;;;;;21.10;99.90;;;;;;5118318;28;20371;-72
2023/05/13 09:50:10;;;;;;;15.57;3.70;;;21.20;99.90;;;;;;5117775;28;19922;-72
2023/05/13 09:52:37;;;;;;;7.05;3.70;;;21.30;99.90;;;;;;5117689;28;20092;-72
2023/05/13 09:55:04;;;;;;;8.63;3.55;;;21.30;99.90;;;;;;5117647;28;20482;-72
2023/05/13 09:57:32;;;;;;;5.53;3.20;;;21.40;99.90;;;;;;5117700;28;20367;-71
2023/05/13 10:00:04;;;;;;;6.28;3.15;;;21.40;99.90;;;;;;5117640;28;20360;-72
2023/05/13 10:02:30;;;;;;;5.32;3.90;;;21.40;99.90;;;;;;5117479;28;20036;-71
2023/05/13 10:04:57;;;;;;;6.75;3.65;;;21.50;99.90;;;;;;5117626;27;20135;-71
2023/05/13 10:07:24;;;;;;;5.93;3.08;;;21.50;99.90;;;;;;5117768;28;20039;-72
2023/05/13 10:10:08;;;;;;;8.52;3.28;;;21.70;99.90;;;;;;5117360;28;20040;-72
2023/05/13 10:12:36;;;;;;;6.85;2.95;;;21.80;99.90;;;;;;5117312;28;20035;-71
2023/05/13 10:15:04;;;;;;;3.90;2.60;;;21.90;99.90;;;;;;5117267;28;20040;-71
2023/05/13 10:17:30;;;;;;;6.57;3.10;;;22.00;99.90;;;;;;5117231;28;20140;-72
2023/05/13 10:19:56;;;;;;;;;;;22.00;99.90;;;;;;5117786;28;20043;-71
2023/05/13 10:22:30;;;;;;;7.78;3.10;;;21.80;99.90;;;;;;5117117;27;19976;-72
2023/05/13 10:25:00;;;;;;;4.53;2.60;;;21.90;99.90;;;;;;5117070;28;20043;-72
2023/05/13 10:27:31;;;;;;;6.38;2.50;;;22.10;99.90;;;;;;5117133;28;20031;-71
2023/05/13 10:29:58;;;;;;;6.10;2.70;;;22.20;99.90;;;;;;5115833;28;20447;-72
2023/05/13 10:32:26;;;;;;;4.38;3.00;;;22.10;99.90;;;;;;5116146;28;20371;-72
2023/05/13 10:35:11;;;;;;;6.00;2.80;;;22.20;99.90;;;;;;5116931;28;20376;-72
2023/05/13 10:37:49;;;;;;;4.25;2.72;;;22.20;99.90;;;;;;5117512;28;20079;-72
2023/05/13 10:40:20;;;;;;;6.63;2.38;;;22.40;99.90;;;;;;5116796;28;20088;-71
2023/05/13 10:43:13;;;;;;;4.07;2.30;;;22.40;99.90;;;;;;5116765;28;20065;-72
2023/05/13 10:45:42;;;;;;;4.82;2.30;;;22.50;99.90;;;;;;5117157;28;20039;-73
2023/05/13 10:48:12;;;;;;;6.15;2.60;;;22.50;99.90;;;;;;5116352;28;20036;-72
2023/05/13 10:50:38;;;;;;;4.35;2.45;;;22.60;99.90;;;;;;5116806;28;20386;-72
2023/05/13 10:53:11;;;;;;;4.63;2.40;;;22.60;99.90;;;;;;5116517;28;20027;-72
2023/05/13 10:55:44;;;;;;;5.50;2.45;;;22.80;99.90;;;;;;5115367;28;20047;-73
2023/05/13 10:58:12;;;;;;;4.55;2.42;;;22.90;99.90;;;;;;5116987;28;20093;-72
2023/05/13 11:00:40;;;;;;;5.15;2.55;;;22.90;99.90;;;;;;5116472;28;20090;-73
2023/05/13 11:03:27;;;;;;;3.70;2.13;;;23.10;99.90;;;;;;5116343;28;20039;-72
2023/05/13 11:06:19;;;;;;;4.05;2.40;;;23.20;98.30;;;;;;5116481;28;20055;-72
2023/05/13 11:08:47;;;;;;;7.18;2.15;;;23.30;97.70;;;;;;5116715;28;20054;-72
2023/05/13 11:11:25;;;;;;;3.78;2.38;;;23.20;99.00;;;;;;5116172;28;20042;-72
2023/05/13 11:13:52;;;;;;;7.72;2.42;;;23.20;98.40;;;;;;5116355;28;20063;-71
2023/05/13 11:16:19;;;;;;;4.03;2.20;;;23.30;99.90;;;;;;5116187;28;20036;-72
2023/05/13 11:18:45;;;;;;;4.30;1.90;;;23.40;97.80;;;;;;5116050;27;20051;-72
2023/05/13 11:21:10;;;;;;;10.83;2.10;;;23.40;97.00;;;;;;5116071;28;20032;-72
2023/05/13 11:24:02;;;;;;;8.23;2.47;;;23.40;96.60;;;;;;5116119;28;20123;-72
2023/05/13 11:26:43;;;;;;;6.80;2.63;;;23.50;97.70;;;;;;5106514;28;20454;-73
2023/05/13 11:29:09;;;;;;;3.92;2.40;;;23.60;98.10;;;;;;5115909;28;20086;-72
2023/05/13 11:31:48;;;;;;;6.53;2.00;;;23.80;97.90;;;;;;5115816;28;20432;-72
2023/05/13 11:34:21;;;;;;;3.75;1.95;;;23.90;98.50;;;;;;5115871;28;20089;-72
2023/05/13 11:37:06;;;;;;;3.15;2.10;;;24.10;96.20;;;;;;5115972;28;20075;-73
2023/05/13 11:39:32;;;;;;;3.50;1.92;;;24.20;96.40;;;;;;5115791;28;20050;-73
2023/05/13 11:42:02;;;;;;;3.53;1.75;;;24.40;95.00;;;;;;5115660;28;20042;-72
2023/05/13 11:44:28;;;;;;;3.50;1.60;;;24.50;94.40;;;;;;5114545;28;20122;-72
2023/05/13 11:47:01;;;;;;;6.80;1.93;;;24.50;94.20;;;;;;5115471;28;20126;-73
2023/05/13 11:49:33;;;;;;;3.67;2.10;;;24.40;92.20;;;;;;5115671;28;20040;-72
2023/05/13 11:52:03;;;;;;;6.95;1.90;;;24.50;92.50;;;;;;5115345;28;20036;-72
2023/05/13 11:54:29;;;;;;;4.03;1.90;;;24.50;92.40;;;;;;5115227;28;20336;-73
2023/05/13 11:56:55;;;;;;;2.67;1.83;;;24.60;93.70;;;;;;5115577;28;20032;-72
2023/05/13 11:59:21;;;;;;;3.72;1.90;;;24.60;93.00;;;;;;5115182;28;20100;-72
2023/05/13 12:02:01;;;;;;;3.85;1.80;;;24.60;91.00;;;;;;5115247;28;20050;-73
2023/05/13 12:04:28;;;;;;;3.30;2.10;;;24.70;90.80;;;;;;5115179;28;20083;-72
2023/05/13 12:06:54;;;;;;;4.38;1.65;;;24.70;90.60;;;;;;5115078;28;20399;-73
2023/05/13 12:09:22;;;;;;;4.10;1.60;;;24.70;89.40;;;;;;5115119;28;20035;-72
2023/05/13 12:11:49;;;;;;;10.50;2.10;;;24.80;91.10;;;;;;5115242;28;20055;-72
2023/05/13 12:14:16;;;;;;;8.30;1.85;;;24.80;90.20;;;;;;5114950;28;20055;-73
2023/05/13 12:16:42;;;;;;;4.32;1.50;;;24.70;88.70;;;;;;5114983;28;20075;-72
2023/05/13 12:19:08;;;;;;;4.32;1.80;;;24.70;89.20;;;;;;5114918;28;20050;-73
2023/05/13 12:21:34;;;;;;;5.30;1.97;;;24.80;90.90;;;;;;5114831;28;20043;-73
2023/05/13 12:23:59;;;;;;;3.42;1.63;;;24.80;89.70;;;;;;5114858;28;20040;-72
2023/05/13 12:26:25;;;;;;;5.20;1.80;;;24.80;89.50;;;;;;5114774;28;20123;-72
2023/05/13 12:29:00;;;;;;;6.33;1.77;;;24.90;90.40;;;;;;5114740;28;20035;-74
2023/05/13 12:31:26;;;;;;;4.20;1.67;;;25.00;90.60;;;;;;5114842;28;20398;-73
2023/05/13 12:33:52;;;;;;;6.20;1.95;;;24.90;90.60;;;;;;5114564;28;20077;-72
2023/05/13 12:36:19;;;;;;;3.55;1.75;;;24.90;90.30;;;;;;5114315;28;20413;-74
2023/05/13 12:38:54;;;;;;;3.50;1.80;;;24.50;90.10;;;;;;5114865;28;20046;-73
2023/05/13 12:41:21;;;;;;;6.20;1.83;;;24.40;90.60;;;;;;5113592;28;20039;-72
2023/05/13 12:43:47;;;;;;;3.65;1.67;;;24.30;88.10;;;;;;5114586;28;20093;-73
2023/05/13 12:46:12;;;;;;;4.40;1.70;;;24.40;90.10;;;;;;5114429;28;20043;-72